Time;durP1;ratioP1;P1;durP2;ratioP2;P2;SDS_P1;SDS_P2;PMS_P1;PMS_P2;Temp;Humidity;BMP_temperature;BMP_pressure;BME280_temperature;BME280_humidity;BME280_pressure;Samples;Min_cycle;Max_cycle;Signal;HPM_P1;HPM_P2
2022/01/30 00:00:44;;;;;;;9.36;4.09;;;;;;;;;;351127;152;866709;-55
2022/01/30 00:01:46;;;;;;;10.41;4.14;;;;;;;;;;344846;152;857457;-55
2022/01/30 00:02:48;;;;;;;8.69;4.51;;;;;;;;;;341600;155;857782;-55
2022/01/30 00:03:49;;;;;;;8.42;4.52;;;;;;;;;;340641;155;865530;-55
2022/01/30 00:04:51;;;;;;;10.40;5.39;;;;;;;;;;345889;154;859449;-55
2022/01/30 00:05:52;;;;;;;12.09;5.29;;;;;;;;;;349799;151;865134;-55
2022/01/30 00:06:54;;;;;;;11.08;4.59;;;;;;;;;;347673;152;858311;-55
2022/01/30 00:07:55;;;;;;;13.81;5.86;;;;;;;;;;346207;154;857674;-55
2022/01/30 00:08:57;;;;;;;9.45;5.39;;;;;;;;;;348708;151;864867;-55
2022/01/30 00:09:59;;;;;;;13.54;4.98;;;;;;;;;;340526;154;857284;-55
2022/01/30 00:11:09;;;;;;;10.61;5.49;;;;;;;;;;344776;152;860158;-55
2022/01/30 00:12:05;;;;;;;9.41;5.16;;;;;;;;;;345559;154;857209;-55
2022/01/30 00:13:10;;;;;;;11.42;5.85;;;;;;;;;;348322;151;859810;-55
2022/01/30 00:14:14;;;;;;;10.09;5.32;;;;;;;;;;345859;151;857456;-55
2022/01/30 00:15:15;;;;;;;8.66;4.79;;;;;;;;;;347124;153;857423;-55
2022/01/30 00:16:20;;;;;;;14.74;5.13;;;;;;;;;;347588;151;859550;-55
2022/01/30 00:17:27;;;;;;;7.92;4.31;;;;;;;;;;346938;152;857838;-55
2022/01/30 00:19:41;;;;;;;12.19;5.84;;;;;;;;;;348043;151;857424;-55
2022/01/30 00:20:32;;;;;;;9.59;4.17;;;;;;;;;;342158;152;865717;-55
2022/01/30 00:21:38;;;;;;;8.85;4.87;;;;;;;;;;348958;152;865007;-55
2022/01/30 00:22:49;;;;;;;6.78;4.49;;;;;;;;;;347690;154;866004;-55
2022/01/30 00:23:52;;;;;;;15.37;5.58;;;;;;;;;;346024;151;865719;-55
2022/01/30 00:24:54;;;;;;;10.90;4.19;;;;;;;;;;345821;152;857699;-55
2022/01/30 00:25:56;;;;;;;8.99;4.33;;;;;;;;;;345810;155;866014;-53
2022/01/30 00:26:57;;;;;;;7.44;4.18;;;;;;;;;;345053;153;857368;-56
2022/01/30 00:28:06;;;;;;;12.19;5.71;;;;;;;;;;345023;152;857251;-56
2022/01/30 00:29:05;;;;;;;12.64;6.62;;;;;;;;;;344915;153;864241;-56
2022/01/30 00:30:09;;;;;;;11.12;5.93;;;;;;;;;;343997;153;858081;-56
2022/01/30 00:31:13;;;;;;;7.94;4.88;;;;;;;;;;343196;153;865170;-56
2022/01/30 00:32:15;;;;;;;13.67;5.29;;;;;;;;;;343201;152;857348;-55
2022/01/30 00:33:16;;;;;;;10.27;5.09;;;;;;;;;;343916;152;857788;-56
2022/01/30 00:34:18;;;;;;;11.09;5.25;;;;;;;;;;344319;153;865917;-55
2022/01/30 00:35:19;;;;;;;9.43;4.39;;;;;;;;;;343997;152;859116;-56
2022/01/30 00:36:21;;;;;;;8.67;4.07;;;;;;;;;;343234;152;867146;-56
2022/01/30 00:37:23;;;;;;;12.14;5.09;;;;;;;;;;345121;153;858189;-52
2022/01/30 00:38:26;;;;;;;10.17;4.02;;;;;;;;;;343569;154;864214;-56
2022/01/30 00:39:27;;;;;;;10.69;5.11;;;;;;;;;;343900;155;860838;-56
2022/01/30 00:40:30;;;;;;;9.87;5.03;;;;;;;;;;343082;155;858935;-56
2022/01/30 00:41:31;;;;;;;9.91;5.09;;;;;;;;;;344227;152;859019;-56
2022/01/30 00:42:33;;;;;;;11.72;5.69;;;;;;;;;;343391;155;866180;-56
2022/01/30 00:43:35;;;;;;;11.79;5.09;;;;;;;;;;343982;155;859874;-56
2022/01/30 00:44:37;;;;;;;10.99;5.59;;;;;;;;;;341382;154;865152;-56
2022/01/30 00:45:38;;;;;;;10.28;5.33;;;;;;;;;;342967;153;857414;-55
2022/01/30 00:46:41;;;;;;;8.99;4.50;;;;;;;;;;344308;153;857361;-56
2022/01/30 00:47:43;;;;;;;10.53;4.40;;;;;;;;;;343751;155;864805;-56
2022/01/30 00:48:44;;;;;;;12.59;4.92;;;;;;;;;;344347;154;865073;-56
2022/01/30 00:49:46;;;;;;;9.56;4.15;;;;;;;;;;343579;154;865156;-56
2022/01/30 00:50:48;;;;;;;10.92;5.10;;;;;;;;;;345360;155;857463;-56
2022/01/30 00:51:50;;;;;;;11.11;6.04;;;;;;;;;;345272;154;865644;-56
2022/01/30 00:52:55;;;;;;;6.85;3.58;;;;;;;;;;342690;154;864314;-56
2022/01/30 00:53:55;;;;;;;9.32;3.70;;;;;;;;;;344530;154;860228;-56
2022/01/30 00:54:56;;;;;;;9.25;5.01;;;;;;;;;;341759;154;857813;-56
2022/01/30 00:55:58;;;;;;;8.60;3.95;;;;;;;;;;343101;154;857649;-56
2022/01/30 00:56:59;;;;;;;7.69;4.18;;;;;;;;;;344954;155;857647;-55
2022/01/30 00:58:02;;;;;;;8.18;4.59;;;;;;;;;;344239;155;863921;-56
2022/01/30 00:59:03;;;;;;;9.43;4.71;;;;;;;;;;344265;152;864525;-56
2022/01/30 01:00:06;;;;;;;8.31;4.90;;;;;;;;;;345468;153;859120;-56
2022/01/30 01:01:09;;;;;;;12.93;5.05;;;;;;;;;;339824;157;859455;-55
2022/01/30 01:02:10;;;;;;;7.97;4.41;;;;;;;;;;343557;153;866036;-56
2022/01/30 01:03:12;;;;;;;10.71;4.94;;;;;;;;;;351422;150;859795;-55
2022/01/30 01:04:14;;;;;;;8.01;5.19;;;;;;;;;;351349;150;857117;-55
2022/01/30 01:05:16;;;;;;;10.83;4.66;;;;;;;;;;349620;151;864900;-55
2022/01/30 01:06:19;;;;;;;10.41;5.13;;;;;;;;;;350323;151;860200;-56
2022/01/30 01:07:23;;;;;;;9.69;4.79;;;;;;;;;;351330;151;857109;-55
2022/01/30 01:09:10;;;;;;;6.64;3.49;;;;;;;;;;352358;151;858750;-56
2022/01/30 01:09:36;;;;;;;9.20;4.64;;;;;;;;;;335419;151;859957;-56
2022/01/30 01:10:49;;;;;;;9.26;4.96;;;;;;;;;;350720;150;859430;-56
2022/01/30 01:13:27;;;;;;;9.43;3.91;;;;;;;;;;351663;150;858244;-55
2022/01/30 01:23:42;;;;;;;6.15;3.78;;;;;;;;;;352901;150;859201;-56
2022/01/30 01:24:40;;;;;;;10.58;5.43;;;;;;;;;;348425;150;858206;-56
2022/01/30 01:25:42;;;;;;;10.16;3.62;;;;;;;;;;350272;152;865215;-57
2022/01/30 01:26:44;;;;;;;9.09;5.08;;;;;;;;;;351174;150;865042;-56
2022/01/30 01:27:46;;;;;;;9.16;4.33;;;;;;;;;;350845;150;865332;-55
2022/01/30 01:28:47;;;;;;;9.94;4.24;;;;;;;;;;351641;151;864936;-55
2022/01/30 01:29:49;;;;;;;6.82;3.81;;;;;;;;;;352100;152;867179;-54
2022/01/30 01:30:51;;;;;;;6.59;3.49;;;;;;;;;;350251;150;864651;-55
2022/01/30 01:31:52;;;;;;;6.17;3.84;;;;;;;;;;351740;150;865446;-55
2022/01/30 01:32:54;;;;;;;7.50;3.43;;;;;;;;;;352156;152;857845;-55
2022/01/30 01:34:26;;;;;;;10.09;4.92;;;;;;;;;;351944;150;863825;-55
2022/01/30 01:35:14;;;;;;;9.84;4.50;;;;;;;;;;351035;150;857412;-55
2022/01/30 01:36:16;;;;;;;7.03;4.08;;;;;;;;;;352512;151;857675;-55
2022/01/30 01:37:17;;;;;;;9.46;3.69;;;;;;;;;;350493;152;857713;-55
2022/01/30 01:38:20;;;;;;;6.25;3.35;;;;;;;;;;348594;152;868048;-55
2022/01/30 01:39:22;;;;;;;6.03;3.63;;;;;;;;;;351781;150;865453;-56
2022/01/30 01:40:24;;;;;;;5.04;3.35;;;;;;;;;;352540;150;857140;-55
2022/01/30 01:41:27;;;;;;;7.75;3.78;;;;;;;;;;350054;151;858577;-57
2022/01/30 01:42:32;;;;;;;7.44;4.01;;;;;;;;;;354763;148;864753;-57
2022/01/30 01:43:32;;;;;;;8.02;3.89;;;;;;;;;;355009;148;860343;-55
2022/01/30 01:44:42;;;;;;;5.23;3.37;;;;;;;;;;353647;148;857288;-57
2022/01/30 01:45:40;;;;;;;6.39;3.39;;;;;;;;;;352320;148;858194;-54
2022/01/30 01:46:42;;;;;;;4.29;3.04;;;;;;;;;;353492;148;857709;-55
2022/01/30 01:47:44;;;;;;;6.17;2.91;;;;;;;;;;354010;148;864795;-55
2022/01/30 01:48:48;;;;;;;6.41;3.95;;;;;;;;;;354389;148;857360;-55
2022/01/30 01:49:51;;;;;;;5.29;2.60;;;;;;;;;;356101;148;857284;-55
2022/01/30 01:51:05;;;;;;;3.67;2.86;;;;;;;;;;354129;148;864411;-55
2022/01/30 01:52:19;;;;;;;5.41;3.42;;;;;;;;;;352879;148;865569;-55
2022/01/30 01:53:19;;;;;;;3.49;2.63;;;;;;;;;;355747;148;859478;-55
2022/01/30 01:54:21;;;;;;;7.33;3.42;;;;;;;;;;353302;148;857272;-57
2022/01/30 01:55:22;;;;;;;8.64;3.71;;;;;;;;;;354238;150;857178;-55
2022/01/30 01:56:25;;;;;;;5.15;3.53;;;;;;;;;;353865;148;864614;-57
2022/01/30 01:57:27;;;;;;;5.29;2.84;;;;;;;;;;355884;148;858358;-57
2022/01/30 01:58:28;;;;;;;5.55;2.73;;;;;;;;;;355270;148;865137;-57
2022/01/30 01:59:30;;;;;;;4.37;3.17;;;;;;;;;;353679;148;857388;-57
2022/01/30 02:00:32;;;;;;;6.15;3.12;;;;;;;;;;355655;148;856451;-58
2022/01/30 02:01:34;;;;;;;5.43;3.59;;;;;;;;;;354733;148;860183;-57
2022/01/30 02:02:35;;;;;;;6.77;3.06;;;;;;;;;;355180;148;857289;-57
2022/01/30 02:03:38;;;;;;;7.78;4.11;;;;;;;;;;354253;148;864722;-57
2022/01/30 02:04:41;;;;;;;9.81;5.77;;;;;;;;;;355773;148;857348;-57
2022/01/30 02:05:47;;;;;;;6.60;4.16;;;;;;;;;;355107;148;858971;-58
2022/01/30 02:06:46;;;;;;;7.36;4.79;;;;;;;;;;354311;148;857287;-57
2022/01/30 02:08:59;;;;;;;9.82;5.47;;;;;;;;;;353675;148;866746;-57
2022/01/30 02:10:03;;;;;;;8.32;5.40;;;;;;;;;;352105;148;858782;-57
2022/01/30 02:11:06;;;;;;;19.66;5.33;;;;;;;;;;353895;148;857686;-57
2022/01/30 02:12:13;;;;;;;6.74;4.03;;;;;;;;;;353633;148;856717;-56
2022/01/30 02:13:37;;;;;;;9.75;3.76;;;;;;;;;;352408;148;859141;-57
2022/01/30 02:14:35;;;;;;;7.12;3.72;;;;;;;;;;350036;148;858801;-57
2022/01/30 02:23:54;;;;;;;7.17;4.45;;;;;;;;;;357521;148;857123;-54
2022/01/30 02:24:18;;;;;;;6.67;3.66;;;;;;;;;;331622;159;863769;-57
2022/01/30 02:26:18;;;;;;;4.97;3.10;;;;;;;;;;345474;151;858954;-57
2022/01/30 02:27:23;;;;;;;4.59;2.91;;;;;;;;;;355181;148;858236;-57
2022/01/30 02:28:25;;;;;;;7.54;3.88;;;;;;;;;;356199;148;859804;-55
2022/01/30 02:29:26;;;;;;;4.57;2.91;;;;;;;;;;354338;148;857245;-55
2022/01/30 02:30:33;;;;;;;6.74;3.40;;;;;;;;;;354607;151;857318;-55
2022/01/30 02:31:35;;;;;;;6.65;3.55;;;;;;;;;;353975;148;865574;-57
2022/01/30 02:32:35;;;;;;;6.81;3.86;;;;;;;;;;356321;148;857094;-55
2022/01/30 02:33:36;;;;;;;9.47;4.11;;;;;;;;;;355514;148;857148;-55
2022/01/30 02:34:38;;;;;;;9.81;3.04;;;;;;;;;;356939;148;864853;-54
2022/01/30 02:35:39;;;;;;;7.18;3.84;;;;;;;;;;353607;148;857445;-55
2022/01/30 02:36:50;;;;;;;5.23;2.81;;;;;;;;;;354659;149;858997;-55
2022/01/30 02:37:53;;;;;;;5.92;3.26;;;;;;;;;;354439;148;866243;-55
2022/01/30 02:38:58;;;;;;;6.63;3.29;;;;;;;;;;352477;148;856787;-55
2022/01/30 02:39:58;;;;;;;6.51;3.04;;;;;;;;;;355006;148;864769;-55
2022/01/30 02:41:00;;;;;;;8.96;3.99;;;;;;;;;;354681;148;857992;-55
2022/01/30 02:42:01;;;;;;;5.62;3.64;;;;;;;;;;354982;151;864061;-55
2022/01/30 02:43:04;;;;;;;5.17;3.27;;;;;;;;;;358190;148;866129;-55
2022/01/30 02:44:12;;;;;;;13.85;3.47;;;;;;;;;;359077;148;863936;-55
2022/01/30 02:45:12;;;;;;;4.38;2.81;;;;;;;;;;358235;148;859364;-55
2022/01/30 02:46:28;;;;;;;4.41;3.29;;;;;;;;;;357911;147;857283;-55
2022/01/30 02:48:48;;;;;;;10.08;3.04;;;;;;;;;;358748;148;858372;-55
2022/01/30 02:49:57;;;;;;;5.59;3.33;;;;;;;;;;358079;147;859176;-56
2022/01/30 02:50:54;;;;;;;9.31;3.39;;;;;;;;;;359416;148;859414;-56
2022/01/30 02:51:57;;;;;;;4.08;2.63;;;;;;;;;;357963;148;863907;-56
2022/01/30 03:02:16;;;;;;;3.94;2.28;;;;;;;-3.07;81.91;98349.19;368783;141;881994;-57
2022/01/30 03:03:18;;;;;;;3.61;2.02;;;;;;;;;;363914;147;858051;-57
2022/01/30 03:04:20;;;;;;;6.09;3.31;;;;;;;;;;360997;147;858634;-55
2022/01/30 03:05:21;;;;;;;4.08;2.33;;;;;;;;;;360294;147;864783;-55
2022/01/30 03:06:23;;;;;;;4.42;2.40;;;;;;;;;;360697;147;857344;-55
2022/01/30 03:07:24;;;;;;;5.04;2.69;;;;;;;;;;362334;147;857279;-55
2022/01/30 03:08:26;;;;;;;6.04;3.38;;;;;;;;;;361270;147;865323;-55
2022/01/30 03:09:27;;;;;;;3.81;2.69;;;;;;;;;;361564;146;857811;-54
2022/01/30 03:10:29;;;;;;;3.59;2.46;;;;;;;;;;362734;147;864941;-55
2022/01/30 03:11:31;;;;;;;6.99;3.59;;;;;;;;;;361551;147;865726;-54
2022/01/30 03:12:32;;;;;;;5.26;3.33;;;;;;;;;;362126;146;865883;-55
2022/01/30 03:13:34;;;;;;;3.00;2.21;;;;;;;;;;361071;141;859240;-55
2022/01/30 03:14:35;;;;;;;6.28;3.10;;;;;;;;;;361524;147;863272;-55
2022/01/30 03:15:37;;;;;;;6.63;4.05;;;;;;;;;;363042;146;864739;-55
2022/01/30 03:16:38;;;;;;;5.95;3.46;;;;;;;;;;363112;146;857286;-55
2022/01/30 03:17:40;;;;;;;3.93;2.59;;;;;;;;;;363786;147;864803;-55
2022/01/30 03:18:43;;;;;;;3.64;2.66;;;;;;;;;;363087;146;863189;-55
2022/01/30 03:19:44;;;;;;;8.79;3.74;;;;;;;;;;355089;149;864850;-55
2022/01/30 03:20:47;;;;;;;3.81;2.51;;;;;;;;;;363813;147;865043;-55
2022/01/30 03:21:49;;;;;;;5.51;3.03;;;;;;;;;;361028;146;857403;-57
2022/01/30 03:22:50;;;;;;;3.32;1.89;;;;;;;;;;363627;146;864937;-55
2022/01/30 03:23:52;;;;;;;4.80;2.91;;;;;;;;;;361321;147;866635;-55
2022/01/30 03:24:53;;;;;;;4.80;2.85;;;;;;;;;;361495;147;857306;-55
2022/01/30 03:25:58;;;;;;;4.36;2.76;;;;;;;;;;363871;146;861059;-55
2022/01/30 03:26:59;;;;;;;4.91;3.21;;;;;;;;;;363146;146;866099;-56
2022/01/30 03:28:01;;;;;;;10.04;4.16;;;;;;;;;;361470;147;864780;-56
2022/01/30 03:29:06;;;;;;;3.75;2.64;;;;;;;;;;362689;147;864597;-56
2022/01/30 03:30:13;;;;;;;4.66;2.99;;;;;;;;;;361499;146;857171;-56
2022/01/30 03:31:13;;;;;;;7.06;2.58;;;;;;;;;;362865;147;856816;-56
2022/01/30 03:32:14;;;;;;;4.84;3.32;;;;;;;;;;362939;147;856643;-56
2022/01/30 03:33:16;;;;;;;6.97;3.24;;;;;;;;;;363105;147;859174;-56
2022/01/30 03:34:18;;;;;;;3.81;1.84;;;;;;;;;;362963;146;866330;-56
2022/01/30 03:35:19;;;;;;;3.65;2.51;;;;;;;;;;360937;147;865241;-56
2022/01/30 03:36:21;;;;;;;3.97;2.55;;;;;;;;;;363687;146;857284;-56
2022/01/30 03:37:22;;;;;;;10.14;2.16;;;;;;;;;;361962;146;858324;-56
2022/01/30 03:38:24;;;;;;;3.37;2.60;;;;;;;;;;361900;147;865013;-56
2022/01/30 03:39:27;;;;;;;4.58;2.05;;;;;;;;;;362156;147;864882;-56
2022/01/30 03:40:29;;;;;;;3.06;2.13;;;;;;;;;;363494;146;856466;-56
2022/01/30 03:41:31;;;;;;;4.14;2.80;;;;;;;;;;361297;147;857264;-56
2022/01/30 03:42:33;;;;;;;3.98;2.45;;;;;;;;;;362601;147;858880;-58
2022/01/30 03:43:35;;;;;;;4.32;2.33;;;;;;;;;;363904;147;857838;-56
2022/01/30 03:44:36;;;;;;;3.89;2.56;;;;;;;;;;362711;147;865158;-56
2022/01/30 03:45:38;;;;;;;3.76;2.31;;;;;;;;;;362311;147;859586;-56
2022/01/30 03:46:39;;;;;;;6.47;2.77;;;;;;;;;;363251;146;860130;-55
2022/01/30 03:47:41;;;;;;;3.21;2.21;;;;;;;;;;361835;146;857358;-56
2022/01/30 03:48:42;;;;;;;13.44;2.18;;;;;;;;;;362294;147;857207;-56
2022/01/30 03:49:44;;;;;;;5.60;2.86;;;;;;;;;;364121;147;863825;-55
2022/01/30 03:50:46;;;;;;;1.88;1.76;;;;;;;;;;361091;147;859515;-57
2022/01/30 03:51:47;;;;;;;5.13;2.71;;;;;;;;;;361349;146;864687;-56
2022/01/30 03:52:49;;;;;;;4.86;2.94;;;;;;;;;;363678;147;864854;-56
2022/01/30 03:53:51;;;;;;;2.51;1.61;;;;;;;;;;362138;147;864989;-56
2022/01/30 03:54:52;;;;;;;2.49;1.87;;;;;;;;;;362759;146;865325;-56
2022/01/30 03:55:54;;;;;;;3.45;1.64;;;;;;;;;;362348;147;864588;-56
2022/01/30 03:56:56;;;;;;;3.60;2.24;;;;;;;;;;361641;147;857185;-56
2022/01/30 03:57:57;;;;;;;4.73;2.25;;;;;;;;;;362800;146;856296;-56
2022/01/30 03:58:59;;;;;;;4.07;2.27;;;;;;;;;;362695;146;866905;-56
2022/01/30 04:00:00;;;;;;;5.16;2.42;;;;;;;;;;361352;147;858936;-56
2022/01/30 04:01:02;;;;;;;5.38;2.77;;;;;;;;;;361843;147;859254;-56
2022/01/30 04:02:03;;;;;;;4.44;2.19;;;;;;;;;;363255;146;860204;-56
2022/01/30 04:03:05;;;;;;;2.53;1.80;;;;;;;;;;360915;147;859363;-56
2022/01/30 04:04:07;;;;;;;5.76;2.37;;;;;;;;;;361478;146;856268;-57
2022/01/30 04:05:08;;;;;;;3.39;2.42;;;;;;;;;;361505;146;865474;-57
2022/01/30 04:06:12;;;;;;;14.49;2.73;;;;;;;;;;361727;147;858357;-56
2022/01/30 04:07:14;;;;;;;4.45;2.66;;;;;;;;;;361725;147;865006;-56
2022/01/30 04:08:15;;;;;;;5.17;2.61;;;;;;;;;;362956;146;865861;-55
2022/01/30 04:09:17;;;;;;;6.11;2.35;;;;;;;;;;361773;147;858298;-57
2022/01/30 04:10:19;;;;;;;3.07;1.63;;;;;;;;;;363409;147;866128;-56
2022/01/30 04:11:22;;;;;;;5.23;2.62;;;;;;;;;;363792;147;857326;-54
2022/01/30 04:12:24;;;;;;;3.48;1.98;;;;;;;;;;362710;146;865235;-56
2022/01/30 04:13:25;;;;;;;3.31;2.01;;;;;;;;;;361386;147;857096;-56
2022/01/30 04:14:27;;;;;;;4.97;2.54;;;;;;;;;;362953;147;864461;-56
2022/01/30 04:15:29;;;;;;;3.36;2.14;;;;;;;;;;355248;149;866691;-56
2022/01/30 04:16:31;;;;;;;1.89;1.28;;;;;;;;;;363350;147;864648;-56
2022/01/30 04:17:32;;;;;;;4.13;2.17;;;;;;;;;;359266;147;857186;-56
2022/01/30 04:18:34;;;;;;;3.52;1.85;;;;;;;;;;362146;146;864944;-56
2022/01/30 04:19:36;;;;;;;2.57;1.65;;;;;;;;;;362877;146;860330;-56
2022/01/30 04:20:38;;;;;;;3.40;1.65;;;;;;;;;;362920;147;865071;-57
2022/01/30 04:21:40;;;;;;;4.58;2.18;;;;;;;;;;363249;147;857780;-56
2022/01/30 04:22:42;;;;;;;3.91;1.84;;;;;;;;;;361775;146;859098;-57
2022/01/30 04:23:43;;;;;;;3.42;1.81;;;;;;;;;;364047;147;864731;-56
2022/01/30 04:24:45;;;;;;;2.23;1.76;;;;;;;;;;361650;147;866146;-57
2022/01/30 04:25:47;;;;;;;1.89;1.59;;;;;;;;;;362613;146;859227;-56
2022/01/30 04:26:48;;;;;;;3.54;2.00;;;;;;;;;;362986;146;864960;-57
2022/01/30 04:27:50;;;;;;;1.59;1.37;;;;;;;;;;364553;147;864818;-56
2022/01/30 04:28:51;;;;;;;2.33;1.21;;;;;;;;;;361748;147;856862;-56
2022/01/30 04:29:53;;;;;;;3.86;1.84;;;;;;;;;;364030;146;865445;-57
2022/01/30 04:30:55;;;;;;;2.59;1.28;;;;;;;;;;360791;147;865551;-57
2022/01/30 04:31:57;;;;;;;3.76;2.05;;;;;;;;;;360046;147;859342;-57
2022/01/30 04:32:59;;;;;;;1.88;1.57;;;;;;;;;;362389;146;857251;-57
2022/01/30 04:34:01;;;;;;;3.50;1.83;;;;;;;;;;362370;147;857634;-58
2022/01/30 04:35:11;;;;;;;2.30;1.99;;;;;;;;;;363937;147;858450;-58
2022/01/30 04:36:10;;;;;;;4.85;2.91;;;;;;;;;;363723;146;857126;-58
2022/01/30 04:37:21;;;;;;;3.99;2.14;;;;;;;;;;361719;146;863913;-57
2022/01/30 04:39:39;;;;;;;4.98;2.32;;;;;;;;;;361110;146;857923;-56
2022/01/30 04:42:20;;;;;;;3.33;2.33;;;;;;;;;;362318;147;857424;-57
2022/01/30 04:53:38;;;;;;;3.75;1.77;;;;;;;;;;361733;147;858747;-57
2022/01/30 04:55:10;;;;;;;2.43;1.70;;;;;;;;;;360443;146;859078;-58
2022/01/30 04:57:02;;;;;;;2.33;1.19;;;;;;;;;;361770;147;859965;-58
2022/01/30 04:58:15;;;;;;;2.60;1.57;;;;;;;;;;360691;146;864337;-56
2022/01/30 04:59:16;;;;;;;5.10;2.27;;;;;;;;;;360057;147;857265;-57
2022/01/30 05:00:30;;;;;;;4.71;2.14;;;;;;;;;;361004;146;857720;-55
2022/01/30 05:02:25;;;;;;;2.19;1.78;;;;;;;;;;360172;147;857774;-55
2022/01/30 05:03:40;;;;;;;2.65;1.41;;;;;;;;;;360645;147;856635;-57
2022/01/30 05:04:54;;;;;;;4.46;1.91;;;;;;;;;;362026;146;857182;-55
2022/01/30 05:06:00;;;;;;;2.17;1.57;;;;;;;;;;361306;147;858301;-56
2022/01/30 05:08:02;;;;;;;2.65;1.61;;;;;;;;;;362800;146;860250;-56
2022/01/30 05:09:04;;;;;;;3.26;1.85;;;;;;;;;;360140;147;858655;-55
2022/01/30 05:10:07;;;;;;;2.24;1.53;;;;;;;;;;360738;147;864623;-55
2022/01/30 05:11:09;;;;;;;5.40;1.85;;;;;;;;;;362235;146;857267;-57
2022/01/30 05:12:12;;;;;;;2.04;1.86;;;;;;;;;;362439;146;857082;-57
2022/01/30 05:13:18;;;;;;;2.51;1.30;;;;;;;;;;360460;147;859776;-57
2022/01/30 05:14:21;;;;;;;5.76;2.33;;;;;;;;;;363626;146;859666;-57
2022/01/30 05:15:22;;;;;;;2.83;2.49;;;;;;;;;;359803;147;864832;-53
2022/01/30 05:16:24;;;;;;;2.68;2.02;;;;;;;;;;360626;147;864526;-58
2022/01/30 05:17:26;;;;;;;4.65;2.35;;;;;;;;;;360332;147;856647;-55
2022/01/30 05:18:28;;;;;;;1.59;1.36;;;;;;;;;;361722;147;857665;-56
2022/01/30 05:19:29;;;;;;;3.38;2.39;;;;;;;;;;361693;147;863841;-58
2022/01/30 05:20:34;;;;;;;3.94;2.73;;;;;;;;;;359505;147;857179;-56
2022/01/30 05:21:36;;;;;;;2.81;2.11;;;;;;;;;;358423;147;858213;-57
2022/01/30 05:22:38;;;;;;;3.77;2.09;;;;;;;;;;358688;148;858621;-56
2022/01/30 05:23:40;;;;;;;3.00;2.01;;;;;;;;;;360213;148;857241;-57
2022/01/30 05:24:42;;;;;;;4.28;2.19;;;;;;;;;;359104;148;857646;-56
2022/01/30 05:25:46;;;;;;;2.15;1.69;;;;;;;;;;360702;148;857307;-57
2022/01/30 05:26:48;;;;;;;2.52;1.87;;;;;;;;;;355566;148;857778;-58
2022/01/30 05:27:50;;;;;;;4.00;1.80;;;;;;;;;;359133;149;859533;-56
2022/01/30 05:28:52;;;;;;;2.89;1.91;;;;;;;;;;358480;147;856358;-58
2022/01/30 05:29:54;;;;;;;3.93;1.79;;;;;;;;;;360254;147;860010;-58
2022/01/30 05:30:56;;;;;;;2.43;1.57;;;;;;;;;;359328;148;857191;-58
2022/01/30 05:31:58;;;;;;;3.66;2.07;;;;;;;;;;358374;147;858205;-59
2022/01/30 05:32:59;;;;;;;4.23;1.90;;;;;;;;;;359479;147;866621;-58
2022/01/30 05:34:01;;;;;;;3.79;2.23;;;;;;;;;;359436;148;857763;-59
2022/01/30 05:35:03;;;;;;;3.07;1.74;;;;;;;;;;362545;147;857103;-58
2022/01/30 05:36:06;;;;;;;3.45;2.15;;;;;;;;;;358241;148;858875;-59
2022/01/30 05:37:08;;;;;;;8.01;3.53;;;;;;;;;;360077;148;858782;-56
2022/01/30 05:38:10;;;;;;;5.59;2.09;;;;;;;;;;361599;147;858915;-57
2022/01/30 05:50:57;;;;;;;4.56;1.63;;;;;;;-2.29;82.59;97950.98;366457;144;880464;-57
2022/01/30 06:31:36;;;;;;;2.87;1.83;;;;;;;-3.46;89.15;97923.25;369940;142;881289;-56
2022/01/30 06:32:38;;;;;;;2.61;2.19;;;;;;;-3.57;89.27;97912.95;361833;144;856144;-56
2022/01/30 06:33:39;;;;;;;2.02;1.77;;;;;;;-3.56;89.38;97918.05;350764;151;857294;-55
2022/01/30 06:34:41;;;;;;;2.89;2.24;;;;;;;-3.50;89.51;97909.69;363361;147;865146;-54
2022/01/30 06:35:43;;;;;;;2.14;1.96;;;;;;;-3.44;89.58;97912.31;363104;146;865585;-56
2022/01/30 06:36:45;;;;;;;3.89;2.23;;;;;;;-3.34;89.42;97918.38;363969;146;866575;-57
2022/01/30 06:37:46;;;;;;;2.16;1.96;;;;;;;-3.21;89.34;97905.89;365974;146;856381;-57
2022/01/30 06:38:49;;;;;;;1.79;1.61;;;;;;;-3.07;89.25;97906.94;358472;146;864054;-55
2022/01/30 06:39:50;;;;;;;1.54;1.27;;;;;;;-2.91;89.06;97908.01;361981;145;863823;-55
2022/01/30 06:40:52;;;;;;;2.10;1.41;;;;;;;-2.83;88.30;97901.36;360753;146;856788;-55
2022/01/30 06:41:54;;;;;;;3.44;1.44;;;;;;;-2.62;88.10;97901.61;360075;145;857227;-55
2022/01/30 06:42:56;;;;;;;1.93;1.63;;;;;;;-2.56;87.02;97907.59;362409;145;864862;-55
2022/01/30 06:43:58;;;;;;;3.65;1.80;;;;;;;-2.36;86.82;97895.15;361487;148;857208;-54
2022/01/30 06:45:00;;;;;;;2.62;1.64;;;;;;;-2.29;85.53;97890.98;362465;147;864445;-54
2022/01/30 06:46:02;;;;;;;1.82;1.63;;;;;;;-2.13;85.31;97883.52;360633;145;857137;-56
2022/01/30 06:47:05;;;;;;;4.21;1.75;;;;;;;-2.02;84.06;97883.64;363508;145;857074;-57
2022/01/30 06:48:07;;;;;;;3.59;1.89;;;;;;;-1.92;83.52;97867.66;360382;146;859374;-56
2022/01/30 06:49:09;;;;;;;3.34;1.84;;;;;;;-1.84;82.70;97885.50;360566;146;857296;-56
2022/01/30 06:50:11;;;;;;;4.68;2.09;;;;;;;-1.71;82.85;97897.45;360590;145;864731;-54
2022/01/30 06:51:13;;;;;;;2.76;1.88;;;;;;;-1.64;82.69;97878.89;361632;145;858628;-57
2022/01/30 06:52:15;;;;;;;2.69;1.73;;;;;;;-1.53;82.46;97878.98;362428;146;857977;-57
2022/01/30 06:53:16;;;;;;;3.11;2.03;;;;;;;-1.42;81.99;97873.13;360666;145;864820;-56
2022/01/30 06:54:18;;;;;;;2.51;1.71;;;;;;;-1.40;80.57;97866.37;364969;147;860258;-56
2022/01/30 06:55:20;;;;;;;3.39;1.91;;;;;;;-1.38;80.62;97874.85;363484;148;859995;-56
2022/01/30 06:56:22;;;;;;;3.95;2.09;;;;;;;-1.34;80.09;97881.64;362993;146;865646;-58
2022/01/30 06:57:24;;;;;;;3.36;1.89;;;;;;;-1.29;79.92;97864.75;363774;145;857263;-55
2022/01/30 06:58:26;;;;;;;2.27;1.56;;;;;;;-1.26;80.26;97867.31;359674;148;864456;-55
2022/01/30 06:59:27;;;;;;;4.48;2.09;;;;;;;-1.19;80.05;97870.72;359728;148;858788;-55
2022/01/30 07:00:29;;;;;;;3.12;2.13;;;;;;;-1.18;79.32;97863.12;360085;145;866495;-57
2022/01/30 07:01:31;;;;;;;4.53;2.17;;;;;;;-1.11;79.33;97869.06;361010;148;859024;-57
2022/01/30 07:02:33;;;;;;;3.23;2.06;;;;;;;-1.05;79.51;97870.80;360929;146;857414;-56
2022/01/30 07:03:35;;;;;;;2.91;1.88;;;;;;;-0.99;79.02;97857.30;362931;145;865196;-55
2022/01/30 07:04:36;;;;;;;5.42;2.45;;;;;;;-0.96;78.22;97853.06;360967;145;864975;-55
2022/01/30 07:05:38;;;;;;;7.89;2.39;;;;;;;-1.04;77.53;97847.97;360852;146;864773;-56
2022/01/30 07:06:40;;;;;;;2.87;1.65;;;;;;;-0.89;78.35;97862.41;361583;146;857244;-56
2022/01/30 07:07:42;;;;;;;3.29;2.35;;;;;;;;;;360545;145;857312;-57
2022/01/30 07:08:44;;;;;;;4.31;2.46;;;;;;;;;;363156;145;864940;-55
2022/01/30 07:09:45;;;;;;;3.61;2.29;;;;;;;;;;363158;146;857329;-55
2022/01/30 07:10:47;;;;;;;5.43;2.85;;;;;;;;;;359664;145;857261;-54
2022/01/30 07:11:49;;;;;;;3.56;2.26;;;;;;;;;;361505;147;856480;-56
2022/01/30 07:12:51;;;;;;;19.14;7.14;;;;;;;;;;362303;148;856160;-55
2022/01/30 07:13:52;;;;;;;7.09;3.47;;;;;;;;;;361865;145;857263;-56
2022/01/30 07:14:54;;;;;;;4.53;2.91;;;;;;;;;;361316;145;858730;-55
2022/01/30 07:15:55;;;;;;;5.92;3.21;;;;;;;;;;361974;148;856276;-56
2022/01/30 07:16:57;;;;;;;3.06;2.38;;;;;;;;;;358595;146;856288;-55
2022/01/30 07:17:58;;;;;;;5.30;2.71;;;;;;;;;;358496;145;856938;-55
2022/01/30 07:19:00;;;;;;;4.69;3.31;;;;;;;;;;359958;145;857080;-54
2022/01/30 07:20:02;;;;;;;5.12;2.60;;;;;;;;;;357982;148;857220;-55
2022/01/30 07:21:07;;;;;;;4.13;2.41;;;;;;;;;;360780;146;863635;-55
2022/01/30 07:22:07;;;;;;;3.49;2.62;;;;;;;;;;362386;145;856361;-54
2022/01/30 07:23:09;;;;;;;5.19;2.65;;;;;;;;;;361802;148;856145;-54
2022/01/30 07:24:10;;;;;;;4.20;2.54;;;;;;;;;;360645;146;863942;-55
2022/01/30 07:25:12;;;;;;;4.78;2.89;;;;;;;;;;359227;145;856678;-55
2022/01/30 07:26:14;;;;;;;6.33;3.03;;;;;;;;;;361039;147;856334;-54
2022/01/30 07:27:15;;;;;;;5.16;3.13;;;;;;;;;;362970;146;856570;-55
2022/01/30 07:28:17;;;;;;;4.09;3.04;;;;;;;;;;358383;146;857715;-56
2022/01/30 07:29:18;;;;;;;4.46;2.39;;;;;;;;;;359297;145;856656;-56
2022/01/30 07:30:21;;;;;;;4.48;2.78;;;;;;;;;;360144;148;863639;-55
2022/01/30 07:31:23;;;;;;;3.99;2.64;;;;;;;;;;358213;147;863625;-56
2022/01/30 07:32:24;;;;;;;3.76;2.55;;;;;;;;;;356610;147;856087;-55
2022/01/30 07:33:26;;;;;;;5.69;3.01;;;;;;;;;;360643;146;856755;-56
2022/01/30 07:34:27;;;;;;;6.08;3.78;;;;;;;;;;358869;149;858839;-56
2022/01/30 07:35:29;;;;;;;3.92;2.69;;;;;;;;;;358236;146;864506;-55
2022/01/30 07:36:33;;;;;;;4.06;2.87;;;;;;;;;;359576;147;856220;-56
2022/01/30 07:37:34;;;;;;;3.88;2.92;;;;;;;;;;357439;148;856139;-55
2022/01/30 07:38:36;;;;;;;5.23;3.23;;;;;;;;;;357764;146;856214;-56